Time;durP1;ratioP1;P1;durP2;ratioP2;P2;SDS_P1;SDS_P2;PMS_P1;PMS_P2;Temp;Humidity;BMP_temperature;BMP_pressure;BME280_temperature;BME280_humidity;BME280_pressure;Samples;Min_cycle;Max_cycle;Signal;HPM_P1;HPM_P2
2023/09/30 00:00:56;;;;;;;;;3.50;2.00;;;;;22.81;42.06;102115.41;4901893;28;45606;-56
2023/09/30 00:03:21;;;;;;;;;4.50;2.00;;;;;22.82;42.25;102122.41;4901957;29;45371;-56
2023/09/30 00:05:46;;;;;;;;;1.00;1.00;;;;;22.84;42.40;102122.31;4902115;29;45581;-54
2023/09/30 00:08:12;;;;;;;;;1.33;1.33;;;;;22.85;42.44;102126.69;4901125;29;70429;-56
2023/09/30 00:10:37;;;;;;;;;7.00;2.50;;;;;22.85;42.39;102131.97;4901639;29;45310;-55
2023/09/30 00:13:03;;;;;;;;;4.00;2.75;;;;;22.87;42.04;102134.56;4901837;29;45340;-56
2023/09/30 00:15:28;;;;;;;;;3.00;2.00;;;;;22.87;42.20;102129.28;4901959;28;45540;-57
2023/09/30 00:17:53;;;;;;;;;3.00;2.00;;;;;22.90;42.51;102134.41;4901513;29;46991;-55
2023/09/30 00:20:19;;;;;;;;;2.00;2.00;;;;;22.88;42.29;102130.97;4901587;28;45356;-55
2023/09/30 00:22:44;;;;;;;;;3.00;3.00;;;;;22.90;42.43;102137.06;4901968;28;45430;-54
2023/09/30 00:25:10;;;;;;;;;3.00;2.00;;;;;22.89;41.87;102135.34;4902227;28;45218;-53
2023/09/30 00:27:37;;;;;;;;;5.00;2.00;;;;;22.87;42.53;102135.41;4901365;28;47180;-55
2023/09/30 00:30:02;;;;;;;;;3.00;2.00;;;;;22.84;42.51;102128.50;4901590;28;45739;-53
2023/09/30 00:32:28;;;;;;;;;3.25;2.50;;;;;22.84;42.59;102133.78;4901530;28;45276;-56
2023/09/30 00:34:54;;;;;;;;;3.00;2.00;;;;;22.85;42.37;102130.22;4901604;28;45362;-56
2023/09/30 00:37:19;;;;;;;;;2.00;1.75;;;;;22.83;42.48;102132.06;4901141;28;47500;-57
2023/09/30 00:39:45;;;;;;;;;3.00;1.75;;;;;22.84;42.22;102147.00;4900455;29;45380;-55
2023/09/30 00:42:10;;;;;;;;;3.75;2.75;;;;;22.84;42.58;102144.34;4901126;28;45440;-55
2023/09/30 00:44:36;;;;;;;;;4.00;2.75;;;;;22.84;42.73;102133.78;4901548;28;45516;-55
2023/09/30 00:47:02;;;;;;;;;2.00;2.00;;;;;22.84;42.44;102127.59;4901170;28;45350;-56
2023/09/30 00:49:29;;;;;;;;;4.25;3.00;;;;;22.85;42.56;102117.00;4901181;28;45408;-54
2023/09/30 00:51:55;;;;;;;;;4.00;1.50;;;;;22.83;42.19;102118.84;4901320;28;45573;-53
2023/09/30 00:54:22;;;;;;;;;3.00;2.25;;;;;22.84;42.28;102120.56;4901349;29;45478;-55
2023/09/30 00:56:50;;;;;;;;;3.00;2.00;;;;;22.80;42.24;102111.03;4900944;28;46423;-56
2023/09/30 00:59:16;;;;;;;;;4.75;3.00;;;;;22.80;42.36;102107.56;4901386;28;45766;-53
2023/09/30 01:01:43;;;;;;;;;3.00;1.25;;;;;22.79;42.51;102105.84;4901158;28;45441;-52
2023/09/30 01:04:10;;;;;;;;;3.50;3.25;;;;;22.77;42.51;102092.66;4901302;28;45534;-54
2023/09/30 01:06:35;;;;;;;;;3.50;2.75;;;;;22.76;42.42;102106.84;4900853;28;46439;-53
2023/09/30 01:09:01;;;;;;;;;2.75;2.00;;;;;22.78;42.36;102122.63;4899625;29;45265;-55
2023/09/30 01:11:26;;;;;;;;;2.75;2.00;;;;;22.79;42.58;102134.91;4900928;28;45346;-56
2023/09/30 01:13:51;;;;;;;;;4.25;3.00;;;;;22.79;42.61;102143.69;4901027;29;45412;-56
2023/09/30 01:16:17;;;;;;;;;4.50;2.25;;;;;22.81;42.39;102136.53;4900952;29;45395;-55
2023/09/30 01:18:42;;;;;;;;;2.00;2.00;;;;;22.81;42.23;102125.13;4900724;29;45340;-56
2023/09/30 01:21:08;;;;;;;;;4.75;2.00;;;;;22.80;42.29;102129.53;4900761;29;45263;-56
2023/09/30 01:23:35;;;;;;;;;6.25;2.75;;;;;22.81;42.27;102136.53;4900987;28;45384;-56
2023/09/30 01:26:06;;;;;;;;;3.25;0.75;;;;;22.80;42.53;102142.75;4900619;28;46299;-55
2023/09/30 01:28:32;;;;;;;;;2.00;2.00;;;;;22.83;42.66;102139.97;4900389;28;45847;-56
2023/09/30 01:30:57;;;;;;;;;2.75;1.25;;;;;22.83;42.62;102139.09;4900670;28;45473;-55
2023/09/30 01:33:23;;;;;;;;;4.25;2.00;;;;;22.84;42.71;102135.53;4900791;28;45548;-57
2023/09/30 01:35:49;;;;;;;;;4.00;1.25;;;;;22.83;42.83;102125.88;4899404;29;47325;-55
2023/09/30 01:38:14;;;;;;;;;5.00;2.50;;;;;22.79;42.66;102122.53;4900608;28;45315;-55
2023/09/30 01:40:39;;;;;;;;;3.00;1.50;;;;;22.79;42.73;102121.69;4900444;29;45411;-57
2023/09/30 01:43:05;;;;;;;;;6.00;1.50;;;;;22.78;42.43;102115.53;4900657;28;45283;-56
2023/09/30 01:45:30;;;;;;;;;2.50;1.00;;;;;22.75;42.31;102110.41;4900186;29;45431;-55
2023/09/30 01:47:56;;;;;;;;;4.00;2.00;;;;;22.73;42.32;102099.03;4900214;28;45312;-55
2023/09/30 01:50:21;;;;;;;;;1.00;1.00;;;;;22.72;42.45;102102.59;4900293;29;45384;-56
2023/09/30 01:52:46;;;;;;;;;2.00;2.00;;;;;22.71;42.72;102103.53;4899704;29;45546;-56
2023/09/30 01:55:12;;;;;;;;;3.50;1.25;;;;;22.68;42.63;102108.94;4899748;29;56539;-55
2023/09/30 01:57:37;;;;;;;;;2.25;1.00;;;;;22.70;42.66;102101.81;4900093;29;45225;-56
2023/09/30 02:00:04;;;;;;;;;2.00;2.00;;;;;22.68;43.07;102101.00;4899971;28;50308;-55
2023/09/30 02:02:30;;;;;;;;;3.00;1.75;;;;;22.67;42.77;102101.94;4900417;28;45508;-55
2023/09/30 02:04:55;;;;;;;;;5.75;3.00;;;;;22.64;42.51;102095.00;4900048;28;45344;-58
2023/09/30 02:07:20;;;;;;;;;3.00;3.00;;;;;22.65;42.98;102096.72;4900470;28;45887;-54
2023/09/30 02:09:46;;;;;;;;;2.75;2.00;;;;;22.65;42.93;102103.81;4900587;28;45204;-54
2023/09/30 02:12:11;;;;;;;;;3.00;3.00;;;;;22.66;43.03;102105.50;4899832;29;54551;-57
2023/09/30 02:14:38;;;;;;;;;1.25;1.25;;;;;22.67;42.76;102107.22;4899848;29;46172;-56
2023/09/30 02:17:04;;;;;;;;;4.75;2.00;;;;;22.68;43.08;102114.22;4899761;28;45650;-55
2023/09/30 02:19:31;;;;;;;;;3.75;2.00;;;;;22.65;42.76;102112.59;4899988;29;45466;-52
2023/09/30 02:21:56;;;;;;;;;2.50;2.00;;;;;22.68;42.80;102111.59;4900237;28;45619;-55
2023/09/30 02:24:23;;;;;;;;;4.00;2.75;;;;;22.68;42.82;102101.00;4899894;28;45242;-53
2023/09/30 02:26:48;;;;;;;;;3.75;3.00;;;;;22.66;42.91;102110.78;4900122;28;45683;-53
2023/09/30 02:29:13;;;;;;;;;4.50;3.00;;;;;22.64;43.05;102120.59;4899705;28;45346;-53
2023/09/30 02:31:38;;;;;;;;;4.00;2.25;;;;;22.66;42.81;102126.63;4914167;28;50928;-53
2023/09/30 02:34:04;;;;;;;;;1.50;1.50;;;;;22.64;42.82;102107.38;4899170;29;59756;-53
2023/09/30 02:36:29;;;;;;;;;3.00;2.00;;;;;22.64;43.27;102102.09;4899138;29;57369;-50
2023/09/30 02:38:54;;;;;;;;;2.25;2.00;;;;;22.62;42.90;102098.66;4899829;29;45328;-52
2023/09/30 02:41:20;;;;;;;;;1.75;1.75;;;;;22.62;42.75;102102.13;4899865;29;46832;-54
2023/09/30 02:43:46;;;;;;;;;2.00;2.00;;;;;22.63;42.88;102097.72;4899632;28;46039;-54
2023/09/30 02:46:12;;;;;;;;;4.25;2.25;;;;;22.62;43.14;102093.38;4899663;28;45295;-53
2023/09/30 02:48:37;;;;;;;;;2.50;2.00;;;;;22.61;43.00;102087.22;4899545;28;45398;-55
2023/09/30 02:51:03;;;;;;;;;2.75;2.00;;;;;22.60;43.19;102093.41;4899752;29;45619;-55
2023/09/30 02:53:28;;;;;;;;;2.50;2.00;;;;;22.61;43.33;102103.06;4899533;28;45944;-54
2023/09/30 02:55:56;;;;;;;;;4.00;2.00;;;;;22.62;43.21;102109.22;4899480;28;45563;-52
2023/09/30 02:58:23;;;;;;;;;3.75;3.50;;;;;22.60;43.04;102100.50;4899767;28;45315;-55
2023/09/30 03:00:49;;;;;;;;;3.00;1.75;;;;;22.65;43.10;102117.03;4899559;29;45334;-54
2023/09/30 03:03:14;;;;;;;;;4.75;1.00;;;;;22.65;43.15;102119.66;4899296;29;46156;-55
2023/09/30 03:05:40;;;;;;;;;3.00;2.00;;;;;22.67;43.32;102128.34;4902289;28;45258;-56
2023/09/30 03:08:05;;;;;;;;;2.75;2.00;;;;;22.68;43.08;102130.97;4902590;29;45303;-54
2023/09/30 03:10:30;;;;;;;;;2.00;2.00;;;;;22.68;43.12;102120.38;4903027;29;45454;-55
2023/09/30 03:13:01;;;;;;;;;2.00;2.00;;;;;22.66;42.63;102129.28;4902548;28;46156;-56
2023/09/30 03:15:28;;;;;;;;;2.25;2.25;;;;;22.64;42.97;102123.22;4917094;28;45713;-55
2023/09/30 03:17:55;;;;;;;;;3.00;2.00;;;;;22.63;43.18;102132.09;4902778;28;45297;-55
2023/09/30 03:20:21;;;;;;;;;3.00;3.00;;;;;22.63;43.35;102132.94;4903029;28;45529;-56
2023/09/30 03:22:47;;;;;;;;;2.25;2.25;;;;;22.63;43.16;102127.63;4902396;28;46112;-55
2023/09/30 03:25:17;;;;;;;;;3.00;2.00;;;;;22.62;42.70;102131.22;4902347;28;45809;-54
2023/09/30 03:27:46;;;;;;;;;4.00;2.50;;;;;22.61;42.83;102139.22;4902449;28;45181;-56
2023/09/30 03:30:15;;;;;;;;;6.25;3.00;;;;;22.62;43.35;102136.50;4902609;28;45401;-55
2023/09/30 03:32:42;;;;;;;;;0.00;0.00;;;;;22.65;43.34;102143.44;4902214;28;45535;-56
2023/09/30 03:35:10;;;;;;;;;2.50;2.50;;;;;22.63;43.20;102146.13;4902213;28;45262;-56
2023/09/30 03:37:37;;;;;;;;;3.00;2.00;;;;;22.64;43.20;102144.38;4902257;28;45351;-54
2023/09/30 03:40:11;;;;;;;;;2.25;2.00;;;;;22.64;43.24;102149.66;4901149;29;45504;-57
2023/09/30 03:42:39;;;;;;;;;2.75;2.00;;;;;22.65;43.28;102157.50;4902064;28;46131;-57
2023/09/30 03:45:07;;;;;;;;;3.00;1.50;;;;;22.67;42.90;102147.72;4902091;28;45403;-55
2023/09/30 03:47:34;;;;;;;;;2.00;2.00;;;;;22.67;43.29;102149.50;4902180;28;45313;-55
2023/09/30 03:49:59;;;;;;;;;3.00;3.00;;;;;22.68;43.00;102145.94;4901114;28;45576;-55
2023/09/30 03:52:26;;;;;;;;;2.75;2.75;;;;;22.64;42.95;102139.94;4902278;29;45257;-55
2023/09/30 03:54:51;;;;;;;;;2.25;2.25;;;;;22.63;43.35;102142.66;4901877;28;45618;-56
2023/09/30 03:57:17;;;;;;;;;7.00;2.00;;;;;22.61;43.17;102145.34;4901989;28;45497;-54
2023/09/30 03:59:42;;;;;;;;;3.50;2.75;;;;;22.59;42.99;102141.06;4902245;28;45534;-55
2023/09/30 04:02:08;;;;;;;;;4.75;3.75;;;;;22.57;43.21;102135.84;4901753;28;45342;-53
2023/09/30 04:04:34;;;;;;;;;4.75;3.00;;;;;22.57;42.87;102127.06;4901289;29;57591;-53
2023/09/30 04:06:59;;;;;;;;;3.75;3.00;;;;;22.52;43.29;102116.69;4901968;28;45334;-53
2023/09/30 04:09:25;;;;;;;;;4.50;2.25;;;;;22.54;43.10;102117.47;4902202;28;45353;-56
2023/09/30 04:11:50;;;;;;;;;5.00;3.75;;;;;22.51;43.23;102118.47;4901033;29;45418;-55
2023/09/30 04:14:17;;;;;;;;;2.75;2.75;;;;;22.49;43.51;102093.91;4901723;28;45355;-56
2023/09/30 04:16:42;;;;;;;;;3.00;2.00;;;;;22.51;43.23;102099.97;4900791;28;45317;-56
2023/09/30 04:19:10;;;;;;;;;3.75;3.00;;;;;22.49;43.08;102083.34;4901924;28;45516;-55
2023/09/30 04:21:35;;;;;;;;;4.75;3.00;;;;;22.47;43.57;102085.19;4901542;28;47162;-55
2023/09/30 04:24:00;;;;;;;;;4.25;2.25;;;;;22.44;43.64;102073.91;4901524;28;45279;-55
2023/09/30 04:26:27;;;;;;;;;4.25;3.00;;;;;22.41;43.53;102077.53;4901899;29;45355;-55
2023/09/30 04:28:53;;;;;;;;;3.00;3.00;;;;;22.40;43.53;102078.44;4901527;29;45458;-55
2023/09/30 04:31:21;;;;;;;;;2.50;2.50;;;;;22.36;43.43;102067.16;4901367;28;45414;-55
2023/09/30 04:33:47;;;;;;;;;4.00;3.00;;;;;22.34;43.45;102063.72;4901256;28;45881;-56
2023/09/30 04:36:12;;;;;;;;;6.00;3.00;;;;;22.32;43.50;102070.84;4901453;28;45256;-55
2023/09/30 04:38:37;;;;;;;;;2.00;2.00;;;;;22.32;43.63;102062.06;4901557;28;45453;-54
2023/09/30 04:41:03;;;;;;;;;5.00;3.00;;;;;22.33;43.69;102061.13;4901210;28;46252;-54
2023/09/30 04:43:29;;;;;;;;;2.25;2.25;;;;;22.32;43.70;102075.28;4901608;28;45422;-54
2023/09/30 04:45:56;;;;;;;;;2.50;2.00;;;;;22.32;43.97;102085.84;4900052;28;45306;-52
2023/09/30 04:48:22;;;;;;;;;6.75;3.00;;;;;22.32;43.97;102104.31;4901592;28;45481;-54
2023/09/30 04:50:48;;;;;;;;;4.25;4.00;;;;;22.34;44.02;102110.38;4901081;29;46258;-57
2023/09/30 04:53:13;;;;;;;;;3.75;3.00;;;;;22.38;43.66;102117.25;4899771;29;48929;-54
2023/09/30 04:55:39;;;;;;;;;3.50;2.00;;;;;22.40;43.75;102110.13;4901139;28;45437;-55
2023/09/30 04:58:05;;;;;;;;;3.00;3.00;;;;;22.41;43.68;102111.00;4901257;28;45440;-56
2023/09/30 05:00:30;;;;;;;;;4.75;3.50;;;;;22.39;43.56;102117.19;4901207;28;46100;-56
2023/09/30 05:02:56;;;;;;;;;3.75;3.75;;;;;22.42;43.47;102113.59;4900937;28;45391;-57
2023/09/30 05:05:21;;;;;;;;;2.50;2.50;;;;;22.42;43.54;102112.72;4901147;29;45432;-56
2023/09/30 05:07:50;;;;;;;;;2.75;2.75;;;;;22.39;43.55;102103.13;4901278;28;45261;-56
2023/09/30 05:10:17;;;;;;;;;2.25;2.00;;;;;22.39;43.72;102096.03;4900754;28;46113;-55
2023/09/30 05:12:46;;;;;;;;;3.25;3.25;;;;;22.35;43.53;102105.06;4900717;28;45983;-55
2023/09/30 05:15:13;;;;;;;;;5.00;3.50;;;;;22.33;43.72;102109.53;4900939;28;45449;-55
2023/09/30 05:17:39;;;;;;;;;3.75;2.75;;;;;22.31;43.67;102098.16;4901012;28;45574;-53
2023/09/30 05:20:07;;;;;;;;;6.75;3.25;;;;;22.33;44.00;102108.66;4900597;29;46116;-55
2023/09/30 05:22:34;;;;;;;;;4.00;2.00;;;;;22.35;43.88;102101.53;4900718;28;45310;-55
2023/09/30 05:25:00;;;;;;;;;2.75;2.50;;;;;22.36;43.86;102103.25;4901092;28;45363;-55
2023/09/30 05:27:27;;;;;;;;;4.75;3.00;;;;;22.36;43.77;102104.13;4900598;28;45325;-55
2023/09/30 05:29:52;;;;;;;;;4.00;2.00;;;;;22.36;43.94;102111.16;4900368;28;46180;-52
2023/09/30 05:32:18;;;;;;;;;4.25;3.00;;;;;22.34;44.06;102119.19;4900592;29;45249;-55
2023/09/30 05:34:43;;;;;;;;;4.75;3.00;;;;;22.36;43.94;102124.38;4900462;28;45247;-55
2023/09/30 05:37:09;;;;;;;;;7.50;3.00;;;;;22.39;43.70;102126.91;4900444;28;45246;-53
2023/09/30 05:39:34;;;;;;;;;3.75;2.50;;;;;22.39;44.14;102126.91;4899986;29;59765;-53
2023/09/30 05:42:00;;;;;;;;;1.75;1.75;;;;;22.40;43.87;102125.97;4900723;28;45879;-52
2023/09/30 05:44:28;;;;;;;;;5.75;2.25;;;;;22.39;43.90;102130.38;4900561;28;45593;-52
2023/09/30 05:46:54;;;;;;;;;2.00;2.00;;;;;22.39;44.06;102140.09;4900638;28;45972;-52
2023/09/30 05:49:20;;;;;;;;;6.75;4.75;;;;;22.38;43.73;102125.19;4900276;28;46350;-54
2023/09/30 05:51:46;;;;;;;;;14.00;10.00;;;;;22.37;43.91;102123.47;4900184;28;45382;-56
2023/09/30 05:54:11;;;;;;;;;14.75;12.75;;;;;22.36;43.88;102114.69;4900258;29;45388;-53
2023/09/30 05:56:37;;;;;;;;;17.00;13.75;;;;;22.34;43.69;102105.97;4900383;28;45398;-54
2023/09/30 05:59:04;;;;;;;;;13.75;10.75;;;;;22.35;44.05;102105.06;4900354;28;46309;-55
2023/09/30 06:01:32;;;;;;;;;16.25;11.50;;;;;22.36;43.97;102105.88;4899211;29;45833;-55
2023/09/30 06:03:57;;;;;;;;;10.75;9.75;;;;;22.34;44.04;102100.69;4900162;28;45359;-54
2023/09/30 06:06:23;;;;;;;;;11.00;10.00;;;;;22.34;43.77;102111.25;4900306;28;45456;-54
2023/09/30 06:08:49;;;;;;;;;8.25;8.25;;;;;22.32;43.79;102101.69;4899948;28;46987;-55
2023/09/30 06:11:19;;;;;;;;;6.50;5.50;;;;;22.32;44.30;102117.53;4899990;28;45903;-53
2023/09/30 06:13:46;;;;;;;;;12.00;8.50;;;;;22.30;43.71;102111.44;4900162;28;45332;-56
2023/09/30 06:16:12;;;;;;;;;6.50;6.50;;;;;22.31;44.11;102119.28;4900274;28;45248;-54
2023/09/30 06:18:38;;;;;;;;;7.50;6.00;;;;;22.32;44.21;102117.53;4899706;29;46040;-55
2023/09/30 06:21:03;;;;;;;;;8.25;6.50;;;;;22.31;44.13;102106.09;4900018;28;45308;-54
2023/09/30 06:23:29;;;;;;;;;5.50;5.00;;;;;22.31;43.92;102121.94;4899934;28;45362;-55
2023/09/30 06:25:55;;;;;;;;;8.50;6.00;;;;;22.32;44.04;102131.59;4898865;29;45315;-52
2023/09/30 06:28:25;;;;;;;;;9.00;6.00;;;;;22.36;44.12;102124.38;4899656;28;45948;-53
2023/09/30 06:30:54;;;;;;;;;4.25;4.00;;;;;22.37;43.84;102110.25;4899755;28;45745;-53
2023/09/30 06:33:20;;;;;;;;;4.75;3.50;;;;;22.36;44.04;102103.25;4899848;28;45405;-55
2023/09/30 06:35:55;;;;;;;;;5.00;5.00;;;;;22.36;44.10;102122.63;4899768;28;45542;-51
2023/09/30 06:38:21;;;;;;;;;6.50;4.50;;;;;22.37;43.84;102136.66;4899570;28;45966;-54
2023/09/30 06:40:47;;;;;;;;;7.00;5.75;;;;;22.37;43.72;102139.31;4902753;29;45262;-55
2023/09/30 06:43:15;;;;;;;;;6.50;5.50;;;;;22.35;43.59;102154.34;4903170;28;45276;-54
2023/09/30 06:45:44;;;;;;;;;4.00;4.00;;;;;22.33;43.63;102140.34;4903278;28;45526;-53
2023/09/30 06:48:15;;;;;;;;;7.50;5.00;;;;;22.32;43.64;102131.59;4902841;28;46337;-55
2023/09/30 06:50:48;;;;;;;;;4.75;3.50;;;;;22.32;43.91;102136.88;4903004;28;45820;-55
2023/09/30 06:53:16;;;;;;;;;5.25;5.25;;;;;22.28;43.75;102131.78;4902973;28;45344;-55
2023/09/30 06:55:45;;;;;;;;;4.00;2.75;;;;;22.30;43.93;102146.63;4902060;29;45481;-54
2023/09/30 06:58:11;;;;;;;;;3.00;3.00;;;;;22.29;43.80;102138.78;4902644;28;46351;-51
2023/09/30 07:00:38;;;;;;;;;7.00;4.25;;;;;22.31;43.80;102142.22;4902984;28;45399;-54
2023/09/30 07:03:04;;;;;;;;;2.00;2.00;;;;;22.28;43.75;102139.69;4903133;28;45188;-54
2023/09/30 07:05:29;;;;;;;;;6.00;4.00;;;;;22.23;44.11;102124.06;4903032;28;45261;-54
2023/09/30 07:07:55;;;;;;;;;4.25;3.75;;;;;22.24;44.01;102131.91;4902618;28;45269;-51
2023/09/30 07:10:21;;;;;;;;;4.00;3.25;;;;;22.19;44.01;102128.63;4902652;28;45317;-53
2023/09/30 07:12:46;;;;;;;;;3.75;3.25;;;;;22.16;43.88;102126.09;4902689;28;45384;-52
2023/09/30 07:15:11;;;;;;;;;5.75;3.25;;;;;22.16;44.00;102143.72;4902823;28;45569;-55
2023/09/30 07:17:38;;;;;;;;;6.50;3.00;;;;;22.15;43.99;102142.84;4917217;28;46036;-54
2023/09/30 07:20:04;;;;;;;;;4.50;4.00;;;;;22.13;44.24;102144.69;4917088;28;45773;-53
2023/09/30 07:22:31;;;;;;;;;4.75;3.75;;;;;22.17;44.11;102156.84;4902523;28;45460;-53
2023/09/30 07:24:56;;;;;;;;;7.75;2.00;;;;;22.16;44.05;102149.84;4902692;28;45530;-55
2023/09/30 07:27:22;;;;;;;;;3.50;3.50;;;;;22.16;44.18;102146.38;4902213;28;46100;-52
2023/09/30 07:29:48;;;;;;;;;5.75;2.50;;;;;22.16;44.19;102147.22;4902329;28;45491;-54
2023/09/30 07:32:13;;;;;;;;;4.25;3.00;;;;;22.15;44.29;102134.94;4903008;28;45304;-55
2023/09/30 07:34:38;;;;;;;;;3.00;3.00;;;;;22.15;44.04;102140.22;4911993;28;45344;-56
2023/09/30 07:37:04;;;;;;;;;10.25;2.25;;;;;22.15;44.20;102145.50;4911403;28;45899;-53
2023/09/30 07:39:29;;;;;;;;;4.50;3.50;;;;;22.11;44.12;102138.63;4909741;28;51634;-52
2023/09/30 07:41:55;;;;;;;;;3.50;2.00;;;;;22.07;44.11;102139.69;4911669;28;45306;-55
2023/09/30 07:44:20;;;;;;;;;0.75;0.75;;;;;22.02;44.36;102136.34;4909605;28;45505;-55
2023/09/30 07:46:46;;;;;;;;;4.00;3.00;;;;;22.00;44.41;102138.19;4910078;28;47036;-52
2023/09/30 07:49:12;;;;;;;;;2.75;2.75;;;;;22.00;44.50;102138.19;4907270;28;45401;-54
2023/09/30 07:51:39;;;;;;;;;4.00;2.00;;;;;22.02;44.69;102141.63;4910329;28;45332;-53
2023/09/30 07:54:05;;;;;;;;;3.25;2.25;;;;;22.06;44.38;102151.16;4911653;28;45320;-52
2023/09/30 07:56:30;;;;;;;;;6.50;3.00;;;;;22.09;44.75;102143.13;4909553;28;45426;-51
2023/09/30 07:58:56;;;;;;;;;4.00;2.25;;;;;22.12;44.79;102148.25;4911102;28;45375;-53
2023/09/30 08:01:21;;;;;;;;;4.00;2.00;;;;;22.17;44.54;102146.28;4910991;28;45442;-54
2023/09/30 08:03:47;;;;;;;;;2.25;2.00;;;;;22.21;44.45;102154.94;4909289;28;57867;-54
2023/09/30 08:06:12;;;;;;;;;2.00;2.00;;;;;22.21;44.33;102158.44;4910357;28;45312;-53
2023/09/30 08:08:38;;;;;;;;;3.25;2.00;;;;;22.18;44.15;102160.34;4910601;28;46489;-54
2023/09/30 08:11:04;;;;;;;;;2.00;2.00;;;;;22.06;44.17;102154.66;4910375;28;45450;-51
2023/09/30 08:13:30;;;;;;;;;6.00;5.00;;;;;22.09;44.32;102172.16;4911635;28;45584;-51
2023/09/30 08:15:56;;;;;;;;;4.25;3.00;;;;;22.06;44.37;102167.00;4909896;28;46353;-51
2023/09/30 08:18:21;;;;;;;;;4.00;2.00;;;;;22.07;44.62;102166.09;4910289;28;45403;-49
2023/09/30 08:20:47;;;;;;;;;6.00;2.25;;;;;22.06;44.52;102165.22;4911425;28;45491;-53
2023/09/30 08:23:12;;;;;;;;;4.00;2.75;;;;;22.06;44.40;102159.09;4909810;28;45471;-51
2023/09/30 08:25:38;;;;;;;;;4.00;2.75;;;;;22.03;44.38;102167.13;4910652;28;46114;-53
2023/09/30 08:28:04;;;;;;;;;5.75;2.50;;;;;21.99;44.58;102169.03;4910519;28;45732;-50
2023/09/30 08:30:29;;;;;;;;;2.00;2.00;;;;;21.99;44.57;102173.47;4909368;28;45371;-53
2023/09/30 08:32:54;;;;;;;;;4.75;3.00;;;;;21.96;44.54;102168.31;4903823;28;45522;-51
